Kickapoo, Louisiana
Current Conditions -  °F | °C
As of 1:56 PM on Thursday 29 Jan 2015 (Local Time) from KSHV Reporting Station
Scattered Clouds Scattered Clouds  
Wind Chill: 75°   Ceiling: Unl
Heat Index: 75°   Visibility: 10mi
Dew Point: 49°   Wind: 8mph
Humidity: 40%   Direction: 330°NNW
Pressure: 30.16"   Gusts: NA
Location:  32.1925°N, 93.8233°W
Report Text: KSHV 291956Z 33007KT 10SM SCT290 24/09 A3016 RMK AO2 SLP210 T02390094
Loading
Personal Weather Stations






























Interactive Weather Map New forecast layout! Learn more

10-Day Weather Forecast

Advertisements
Track Severe Weather on mobile